createdAt,value
2023-04-11T00:01:41.015Z,285.73
2023-04-11T00:04:11.034Z,13.97
2023-04-11T00:06:39.268Z,178.80
2023-04-11T00:09:07.308Z,109.27
2023-04-11T00:11:36.656Z,72.00
2023-04-11T00:14:05.562Z,79.60
2023-04-11T00:16:34.421Z,113.07
2023-04-11T00:19:02.535Z,145.67
2023-04-11T00:21:30.530Z,264.07
2023-04-11T00:23:58.507Z,177.93
2023-04-11T00:26:26.488Z,173.23
2023-04-11T00:28:56.119Z,89.07
2023-04-11T00:31:24.306Z,58.47
2023-04-11T00:33:52.315Z,270.30
2023-04-11T00:36:20.815Z,71.87
2023-04-11T00:38:48.951Z,70.80
2023-04-11T00:41:16.996Z,196.00
2023-04-11T00:43:44.970Z,43.13
2023-04-11T00:46:15.119Z,89.40
2023-04-11T00:48:43.191Z,100.40
2023-04-11T00:51:11.470Z,147.43
2023-04-11T00:53:39.685Z,64.90
2023-04-11T00:56:08.360Z,149.33
2023-04-11T00:58:37.983Z,139.67
2023-04-11T01:01:09.411Z,76.50
2023-04-11T01:03:41.262Z,53.90
2023-04-11T01:06:11.283Z,94.80
2023-04-11T01:08:40.443Z,122.60
2023-04-11T01:11:10.673Z,124.50
2023-04-11T01:13:42.331Z,105.80
2023-04-11T01:16:11.275Z,144.13
2023-04-11T01:18:40.707Z,219.97
2023-04-11T01:21:09.739Z,131.13
2023-04-11T01:23:39.087Z,50.60
2023-04-11T01:26:07.592Z,238.80
2023-04-11T01:28:35.600Z,148.73
2023-04-11T01:31:03.694Z,89.07
2023-04-11T01:33:31.879Z,97.40
2023-04-11T01:36:00.719Z,39.90
2023-04-11T01:38:28.812Z,76.67
2023-04-11T01:41:00.035Z,36.00
2023-04-11T01:43:28.090Z,125.67
2023-04-11T01:45:56.232Z,125.50
2023-04-11T01:48:24.277Z,208.33
2023-04-11T01:50:53.107Z,89.00
2023-04-11T01:53:21.108Z,34.63
2023-04-11T01:55:49.128Z,52.77
2023-04-11T01:58:18.481Z,125.00
2023-04-11T02:00:46.459Z,101.23
2023-04-11T02:03:14.557Z,129.97
2023-04-11T02:05:44.024Z,27.93
2023-04-11T02:08:12.275Z,106.80
2023-04-11T02:10:40.351Z,34.00
2023-04-11T02:13:08.375Z,76.30
2023-04-11T02:15:37.816Z,72.70
2023-04-11T02:18:06.989Z,31.30
2023-04-11T02:20:35.080Z,72.17
2023-04-11T02:23:04.495Z,37.40
2023-04-11T02:25:32.615Z,60.30
2023-04-11T02:28:00.691Z,87.03
2023-04-11T02:30:28.696Z,107.63
2023-04-11T02:32:58.074Z,30.53
2023-04-11T02:35:26.256Z,41.17
2023-04-11T02:37:54.277Z,66.33
2023-04-11T02:40:22.261Z,39.47
2023-04-11T02:42:50.230Z,123.33
2023-04-11T02:45:18.236Z,89.70
2023-04-11T02:47:46.241Z,66.57
2023-04-11T02:50:15.621Z,44.13
2023-04-11T02:52:47.675Z,29.87
2023-04-11T02:55:15.886Z,83.60
2023-04-11T02:57:43.860Z,81.60
2023-04-11T03:00:13.033Z,72.60
2023-04-11T03:02:41.791Z,87.60
2023-04-11T03:05:10.719Z,110.47
2023-04-11T03:07:40.629Z,100.37
2023-04-11T03:10:09.804Z,80.27
2023-04-11T03:12:37.791Z,269.07
2023-04-11T03:15:06.306Z,59.93
2023-04-11T03:17:34.916Z,91.37
2023-04-11T03:20:07.146Z,52.43
2023-04-11T03:22:35.216Z,63.30
2023-04-11T03:25:04.801Z,40.20
2023-04-11T03:27:32.850Z,27.87
2023-04-11T03:30:00.789Z,60.03
2023-04-11T03:32:28.910Z,49.60
2023-04-11T03:34:56.900Z,65.53
2023-04-11T03:37:24.873Z,241.13
2023-04-11T03:39:52.991Z,157.13
2023-04-11T03:42:22.345Z,150.03
2023-04-11T03:44:50.324Z,249.63
2023-04-11T03:47:18.319Z,45.60
2023-04-11T03:49:46.320Z,129.70
2023-04-11T03:52:15.121Z,122.63
2023-04-11T03:54:44.010Z,110.23
2023-04-11T03:57:12.869Z,87.93
2023-04-11T03:59:42.193Z,88.40
2023-04-11T04:02:10.395Z,103.47
2023-04-11T04:04:39.031Z,23.83
2023-04-11T04:07:10.069Z,19.67
2023-04-11T04:09:38.200Z,56.93
2023-04-11T04:12:06.591Z,56.03
2023-04-11T04:14:34.620Z,30.70
2023-04-11T04:17:04.089Z,124.07
2023-04-11T04:19:32.112Z,71.60
2023-04-11T04:22:00.109Z,60.53
2023-04-11T04:24:29.507Z,27.17
2023-04-11T04:27:00.932Z,54.30
2023-04-11T04:29:34.140Z,131.77
2023-04-11T04:32:10.926Z,39.17
2023-04-11T04:34:46.918Z,49.63
2023-04-11T04:37:21.762Z,33.77
2023-04-11T04:39:54.305Z,88.80
2023-04-11T04:42:24.091Z,98.17
2023-04-11T04:44:52.747Z,51.80
2023-04-11T04:47:25.069Z,62.53
2023-04-11T04:49:56.356Z,45.53
2023-04-11T04:52:25.769Z,52.40
2023-04-11T04:54:53.934Z,67.67
2023-04-11T04:57:21.963Z,18.53
2023-04-11T04:59:49.924Z,41.80
2023-04-11T05:02:18.341Z,18.00
2023-04-11T05:04:48.687Z,17.70
2023-04-11T05:07:16.762Z,47.53
2023-04-11T05:09:44.981Z,74.33
2023-04-11T05:12:13.989Z,48.77
2023-04-11T05:14:41.996Z,72.77
2023-04-11T05:17:10.000Z,51.23
2023-04-11T05:19:37.954Z,71.80
2023-04-11T05:22:07.379Z,119.97
2023-04-11T05:24:35.339Z,80.37
2023-04-11T05:27:03.310Z,53.60
2023-04-11T05:29:31.310Z,46.47
2023-04-11T05:31:59.309Z,199.70
2023-04-11T05:34:30.341Z,203.57
2023-04-11T05:36:58.367Z,38.57
2023-04-11T05:39:27.779Z,106.97
2023-04-11T05:41:56.852Z,24.73
2023-04-11T05:44:24.922Z,57.00
2023-04-11T05:46:52.912Z,113.63
2023-04-11T05:49:20.892Z,53.67
2023-04-11T05:51:48.881Z,341.83
2023-04-11T05:54:34.382Z,479.00
2023-04-11T05:57:03.237Z,625.30
2023-04-11T05:59:32.647Z,438.47
2023-04-11T06:02:00.973Z,346.60
2023-04-11T06:04:29.172Z,223.17
2023-04-11T06:06:57.534Z,363.57
2023-04-11T06:09:25.627Z,555.00
2023-04-11T06:11:54.968Z,430.80
2023-04-11T06:14:22.898Z,316.33
2023-04-11T06:16:50.880Z,221.77
2023-04-11T06:19:18.882Z,546.37
2023-04-11T06:21:46.876Z,193.47
2023-04-11T06:24:18.130Z,513.60
2023-04-11T06:26:46.411Z,332.40
2023-04-11T06:29:15.736Z,245.20
2023-04-11T06:31:43.733Z,87.03
2023-04-11T06:34:12.406Z,224.17
2023-04-11T06:36:42.716Z,230.37
2023-04-11T06:39:10.975Z,328.60
2023-04-11T06:41:38.985Z,367.73
2023-04-11T06:44:07.100Z,207.93
2023-04-11T06:46:36.526Z,171.67
2023-04-11T06:49:07.199Z,152.33
2023-04-11T06:51:35.260Z,178.10
2023-04-11T06:54:03.347Z,237.53
2023-04-11T06:56:31.504Z,797.20
2023-04-11T06:58:59.623Z,802.33
2023-04-11T07:01:35.607Z,241.97
2023-04-11T07:04:05.442Z,567.83
2023-04-11T07:06:35.301Z,483.70
2023-04-11T07:09:03.902Z,38.87
2023-04-11T07:11:32.263Z,106.80
2023-04-11T07:14:00.823Z,35.83
2023-04-11T07:16:29.271Z,167.00
2023-04-11T07:18:57.657Z,105.67
2023-04-11T07:21:27.466Z,86.43
2023-04-11T07:23:55.709Z,66.60
2023-04-11T07:26:27.174Z,110.63
2023-04-11T07:28:55.664Z,87.50
2023-04-11T07:31:25.117Z,660.90
2023-04-11T07:33:53.283Z,598.10
2023-04-11T07:36:21.656Z,214.37
2023-04-11T07:38:52.343Z,293.10
2023-04-11T07:41:20.508Z,309.97
2023-04-11T07:43:48.477Z,261.83
2023-04-11T07:46:16.605Z,380.63
2023-04-11T07:48:44.628Z,84.73
2023-04-11T07:51:13.160Z,200.13
2023-04-11T07:53:41.422Z,378.13
2023-04-11T07:56:11.599Z,369.40
2023-04-11T07:58:39.618Z,151.63
2023-04-11T08:01:09.533Z,289.93
2023-04-11T08:03:39.160Z,366.97
2023-04-11T08:06:07.893Z,238.60
2023-04-11T08:08:36.269Z,614.13
2023-04-11T08:11:04.260Z,444.43
2023-04-11T08:13:33.812Z,514.07
2023-04-11T08:16:02.028Z,661.63
2023-04-11T08:18:30.003Z,376.27
2023-04-11T08:20:58.230Z,386.27
2023-04-11T08:23:26.353Z,257.70
2023-04-11T08:25:54.315Z,333.80
2023-04-11T08:28:22.375Z,360.63
2023-04-11T08:30:55.201Z,93.83
2023-04-11T08:33:26.150Z,95.43
2023-04-11T08:35:54.305Z,266.33
2023-04-11T08:38:22.517Z,139.27
2023-04-11T08:40:50.505Z,251.67
2023-04-11T08:43:18.920Z,313.23
2023-04-11T08:45:47.041Z,620.57
2023-04-11T08:48:16.628Z,425.50
2023-04-11T08:50:45.729Z,601.00
2023-04-11T08:53:15.650Z,588.87
2023-04-11T08:55:47.570Z,271.07
2023-04-11T08:58:16.304Z,779.38
2023-04-11T09:00:45.113Z,829.97
2023-04-11T09:03:14.367Z,730.87
2023-04-11T09:05:45.901Z,581.27
2023-04-11T09:08:15.462Z,808.63
2023-04-11T09:10:46.140Z,685.57
2023-04-11T09:13:22.491Z,884.50
2023-04-11T09:16:05.650Z,838.37
2023-04-11T09:18:34.635Z,975.77
2023-04-11T09:21:06.372Z,810.90
2023-04-11T09:23:34.386Z,901.73
2023-04-11T09:26:02.597Z,769.13
2023-04-11T09:28:42.625Z,779.93
2023-04-11T09:31:12.976Z,946.23
2023-04-11T09:33:52.701Z,977.43
2023-04-11T09:36:23.404Z,805.70
2023-04-11T09:38:52.097Z,918.20
2023-04-11T09:41:32.111Z,999.90
2023-04-11T09:44:00.562Z,999.90
2023-04-11T09:46:28.652Z,999.90
2023-04-11T09:48:57.028Z,999.90
2023-04-11T09:51:36.507Z,931.20
2023-04-11T09:54:06.459Z,965.83
2023-04-11T09:56:35.500Z,925.67
2023-04-11T09:59:05.045Z,999.90
2023-04-11T10:01:34.258Z,793.47
2023-04-11T10:04:04.454Z,923.93
2023-04-11T10:06:39.669Z,894.30
2023-04-11T10:09:09.660Z,962.80
2023-04-11T10:11:38.498Z,999.90
2023-04-11T10:14:06.502Z,999.90
2023-04-11T10:16:34.779Z,999.90
2023-04-11T10:19:25.562Z,999.90
2023-04-11T10:21:55.016Z,999.90
2023-04-11T10:24:23.305Z,999.90
2023-04-11T10:26:53.146Z,999.90
2023-04-11T10:29:53.156Z,999.90
2023-04-11T10:32:23.397Z,999.90
2023-04-11T10:35:31.009Z,999.90
2023-04-11T10:38:00.347Z,999.90
2023-04-11T10:40:28.384Z,999.90
2023-04-11T10:42:57.445Z,999.90
2023-04-11T10:45:27.153Z,999.90
2023-04-11T10:48:07.887Z,999.90
2023-04-11T10:50:42.144Z,999.90
2023-04-11T10:53:34.071Z,999.90
2023-04-11T10:56:02.375Z,999.90
2023-04-11T10:58:37.189Z,999.90
2023-04-11T11:01:31.754Z,999.90
2023-04-11T11:04:06.904Z,999.90
2023-04-11T11:06:46.260Z,999.90
2023-04-11T11:09:25.878Z,999.90
2023-04-11T11:12:07.531Z,999.90
2023-04-11T11:14:35.803Z,999.90
2023-04-11T11:17:04.212Z,999.90
2023-04-11T11:19:32.923Z,999.90
2023-04-11T11:22:03.665Z,999.90
2023-04-11T11:24:33.587Z,999.90
2023-04-11T11:27:01.546Z,999.90
2023-04-11T11:29:34.722Z,999.90
2023-04-11T11:32:03.972Z,999.90
2023-04-11T11:34:33.561Z,999.90
2023-04-11T11:37:04.741Z,837.73
2023-04-11T11:39:35.437Z,999.90
2023-04-11T11:42:03.896Z,999.90
2023-04-11T11:44:32.653Z,999.90
2023-04-11T11:47:04.804Z,999.90
2023-04-11T11:49:46.429Z,999.90
2023-04-11T11:52:30.916Z,999.90
2023-04-11T11:55:00.473Z,999.90
2023-04-11T11:57:28.617Z,999.90
2023-04-11T11:59:57.538Z,999.90
2023-04-11T12:02:27.425Z,999.90
2023-04-11T12:05:00.094Z,999.90
2023-04-11T12:07:32.368Z,999.90
2023-04-11T12:10:03.068Z,999.90
2023-04-11T12:12:36.318Z,999.90
2023-04-11T12:15:04.671Z,999.90
2023-04-11T12:17:37.862Z,999.90
2023-04-11T12:20:08.387Z,999.90
2023-04-11T12:22:36.763Z,999.90
2023-04-11T12:25:10.752Z,999.90
2023-04-11T12:27:39.714Z,999.90
2023-04-11T12:30:09.111Z,999.90
2023-04-11T12:32:37.412Z,999.90
2023-04-11T12:35:07.398Z,999.90
2023-04-11T12:37:36.351Z,999.90
2023-04-11T12:40:09.294Z,999.90
2023-04-11T12:42:53.192Z,999.90
2023-04-11T12:45:24.186Z,999.90
2023-04-11T12:47:52.467Z,999.90
2023-04-11T12:50:22.994Z,999.90
2023-04-11T12:52:51.453Z,999.90
2023-04-11T12:55:19.732Z,999.90
2023-04-11T12:57:49.418Z,999.90
2023-04-11T13:00:18.741Z,999.90
2023-04-11T13:02:48.822Z,999.90
2023-04-11T13:05:17.428Z,999.90
2023-04-11T13:07:46.588Z,999.90
2023-04-11T13:10:15.843Z,999.90
2023-04-11T13:12:45.742Z,999.90
2023-04-11T13:15:17.192Z,999.90
2023-04-11T13:17:45.705Z,999.90
2023-04-11T13:20:14.405Z,999.90
2023-04-11T13:22:43.628Z,999.90
2023-04-11T13:25:12.613Z,999.90
2023-04-11T13:27:40.594Z,999.90
2023-04-11T13:30:10.536Z,999.90
2023-04-11T13:32:40.038Z,999.90
2023-04-11T13:35:09.283Z,999.90
2023-04-11T13:37:37.320Z,999.90
2023-04-11T13:40:08.624Z,999.90
2023-04-11T13:42:36.644Z,999.90
2023-04-11T13:45:05.488Z,999.90
2023-04-11T13:47:34.834Z,999.90
2023-04-11T13:50:07.948Z,999.90
2023-04-11T13:52:35.979Z,999.90
2023-04-11T13:55:04.062Z,999.90
2023-04-11T13:57:32.044Z,999.90
2023-04-11T14:00:00.002Z,999.90
2023-04-11T14:02:28.115Z,999.90
2023-04-11T14:04:56.297Z,999.90
2023-04-11T14:07:26.000Z,999.90
2023-04-11T14:09:54.081Z,999.90
2023-04-11T14:12:22.060Z,999.90
2023-04-11T14:14:50.039Z,999.90
2023-04-11T14:17:18.024Z,999.90
2023-04-11T14:19:46.127Z,999.90
2023-04-11T14:22:14.414Z,999.90
2023-04-11T14:24:43.862Z,999.90
2023-04-11T14:27:11.880Z,999.90
2023-04-11T14:29:39.830Z,999.90
2023-04-11T14:32:07.995Z,999.90
2023-04-11T14:34:36.130Z,999.90
2023-04-11T14:37:04.413Z,999.90
2023-04-11T14:39:32.818Z,999.90
2023-04-11T14:42:02.731Z,999.90
2023-04-11T14:44:30.684Z,999.90
2023-04-11T14:46:59.042Z,999.90
2023-04-11T14:49:27.092Z,999.90
2023-04-11T14:51:55.748Z,999.90
2023-04-11T14:54:24.972Z,999.90
2023-04-11T14:56:53.928Z,999.90
2023-04-11T14:59:23.805Z,999.90
2023-04-11T15:01:52.471Z,999.90
2023-04-11T15:04:21.178Z,999.90
2023-04-11T15:06:49.684Z,999.90
2023-04-11T15:09:20.169Z,999.90
2023-04-11T15:11:48.726Z,999.90
2023-04-11T15:14:16.754Z,999.90
2023-04-11T15:16:46.193Z,999.90
2023-04-11T15:19:14.192Z,999.90
2023-04-11T15:21:42.167Z,999.90
2023-04-11T15:24:10.350Z,999.90
2023-04-11T15:26:38.620Z,999.90
2023-04-11T15:29:07.068Z,999.90
2023-04-11T15:31:37.960Z,999.90
2023-04-11T15:34:07.441Z,999.90
2023-04-11T15:36:38.502Z,999.90
2023-04-11T15:39:06.583Z,999.90
2023-04-11T15:41:34.830Z,999.90
2023-04-11T15:44:03.229Z,999.90
2023-04-11T15:46:31.920Z,999.90
2023-04-11T15:48:59.927Z,999.90
2023-04-11T15:51:29.280Z,999.90
2023-04-11T15:53:57.396Z,999.90
2023-04-11T15:56:25.556Z,999.90
2023-04-11T15:58:53.525Z,999.90
2023-04-11T16:01:22.843Z,999.90
2023-04-11T16:03:51.550Z,999.90
2023-04-11T16:06:20.043Z,999.90
2023-04-11T16:08:49.460Z,999.90
2023-04-11T16:11:17.428Z,999.90
2023-04-11T16:13:45.411Z,999.90
2023-04-11T16:16:13.456Z,999.90
2023-04-11T16:18:41.556Z,999.90
2023-04-11T16:21:13.646Z,999.90
2023-04-11T16:23:41.653Z,999.90
2023-04-11T16:26:11.540Z,999.90
2023-04-11T16:28:39.525Z,999.90
2023-04-11T16:31:09.309Z,999.90
2023-04-11T16:33:37.358Z,999.90
2023-04-11T16:36:05.879Z,999.90
2023-04-11T16:38:34.115Z,999.90
2023-04-11T16:41:03.372Z,999.90
2023-04-11T16:43:32.933Z,999.90
2023-04-11T16:46:01.074Z,999.90
2023-04-11T16:48:30.648Z,999.90
2023-04-11T16:50:59.404Z,999.90
2023-04-11T16:53:27.464Z,999.90
2023-04-11T16:55:55.698Z,999.90
2023-04-11T16:58:23.868Z,999.90
2023-04-11T17:00:53.790Z,999.90
2023-04-11T17:03:22.036Z,999.90
2023-04-11T17:05:50.129Z,999.90
2023-04-11T17:08:19.260Z,999.90
2023-04-11T17:10:47.260Z,999.90
2023-04-11T17:13:18.016Z,999.90
2023-04-11T17:15:46.380Z,999.90
2023-04-11T17:18:15.954Z,999.90
2023-04-11T17:20:46.321Z,999.90
2023-04-11T17:23:14.497Z,999.90
2023-04-11T17:25:42.491Z,999.90
2023-04-11T17:28:10.507Z,999.90
2023-04-11T17:30:38.553Z,999.90
2023-04-11T17:33:06.633Z,913.53
2023-04-11T17:35:36.032Z,999.90
2023-04-11T17:38:04.045Z,999.90
2023-04-11T17:40:32.016Z,999.90
2023-04-11T17:42:59.999Z,999.90
2023-04-11T17:45:28.162Z,999.90
2023-04-11T17:47:56.205Z,999.90
2023-04-11T17:50:24.509Z,935.13
2023-04-11T17:52:54.240Z,999.90
2023-04-11T17:55:22.389Z,999.90
2023-04-11T17:57:50.443Z,999.90
2023-04-11T18:00:23.114Z,999.90
2023-04-11T18:02:52.976Z,999.90
2023-04-11T18:05:24.834Z,999.90
2023-04-11T18:07:56.677Z,999.90
2023-04-11T18:10:25.872Z,999.90
2023-04-11T18:12:55.072Z,904.07
2023-04-11T18:15:24.332Z,790.63
2023-04-11T18:17:52.874Z,948.57
2023-04-11T18:20:21.114Z,818.53
2023-04-11T18:22:51.538Z,734.03
2023-04-11T18:25:21.263Z,608.23
2023-04-11T18:27:49.631Z,573.20
2023-04-11T18:30:18.077Z,507.30
2023-04-11T18:32:49.385Z,520.83
2023-04-11T18:35:19.772Z,999.90
2023-04-11T18:37:47.846Z,376.17
2023-04-11T18:40:16.338Z,328.80
2023-04-11T18:42:49.115Z,257.73
2023-04-11T18:45:20.508Z,368.77
2023-04-11T18:47:49.521Z,474.90
2023-04-11T18:50:18.593Z,461.50
2023-04-11T18:52:49.787Z,423.90
2023-04-11T18:55:20.786Z,207.00
2023-04-11T18:57:53.090Z,226.87
2023-04-11T19:00:22.279Z,331.83
2023-04-11T19:02:51.521Z,462.97
2023-04-11T19:05:20.774Z,305.93
2023-04-11T19:07:49.017Z,370.07
2023-04-11T19:10:16.982Z,219.97
2023-04-11T19:12:44.995Z,216.03
2023-04-11T19:15:14.905Z,418.43
2023-04-11T19:17:43.184Z,332.23
2023-04-11T19:20:13.578Z,253.67
2023-04-11T19:22:41.995Z,191.70
2023-04-11T19:25:11.663Z,472.77
2023-04-11T19:27:41.764Z,163.87
2023-04-11T19:30:14.019Z,298.43
2023-04-11T19:32:46.293Z,285.67
2023-04-11T19:35:15.161Z,261.37
2023-04-11T19:37:43.962Z,205.50
2023-04-11T19:40:14.045Z,264.17
2023-04-11T19:42:42.267Z,136.87
2023-04-11T19:45:11.893Z,230.07
2023-04-11T19:47:41.264Z,352.33
2023-04-11T19:50:13.106Z,118.57
2023-04-11T19:52:41.944Z,314.83
2023-04-11T19:55:11.295Z,216.30
2023-04-11T19:57:40.357Z,434.83
2023-04-11T20:00:13.983Z,130.73
2023-04-11T20:02:45.777Z,161.80
2023-04-11T20:05:18.082Z,308.70
2023-04-11T20:07:46.796Z,678.13
2023-04-11T20:10:15.879Z,141.40
2023-04-11T20:12:44.040Z,197.27
2023-04-11T20:15:12.576Z,430.20
2023-04-11T20:17:40.677Z,740.27
2023-04-11T20:20:11.405Z,135.03
2023-04-11T20:22:40.985Z,282.30
2023-04-11T20:25:11.702Z,145.43
2023-04-11T20:27:40.021Z,246.70
2023-04-11T20:30:10.646Z,57.27
2023-04-11T20:32:38.869Z,414.37
2023-04-11T20:35:08.672Z,147.77
2023-04-11T20:37:36.851Z,330.30
2023-04-11T20:40:08.527Z,241.37
2023-04-11T20:42:39.935Z,119.73
2023-04-11T20:45:10.695Z,97.07
2023-04-11T20:47:38.957Z,485.07
2023-04-11T20:50:10.185Z,113.37
2023-04-11T20:52:41.076Z,87.63
2023-04-11T20:55:11.779Z,109.87
2023-04-11T20:57:39.909Z,105.83
2023-04-11T21:00:13.885Z,151.47
2023-04-11T21:02:44.158Z,439.00
2023-04-11T21:05:12.967Z,271.77
2023-04-11T21:07:42.037Z,132.57
2023-04-11T21:10:12.287Z,59.60
2023-04-11T21:12:40.839Z,162.30
2023-04-11T21:15:10.139Z,62.83
2023-04-11T21:17:39.605Z,125.80
2023-04-11T21:20:11.101Z,107.70
2023-04-11T21:22:40.587Z,42.03
2023-04-11T21:25:09.674Z,99.87
2023-04-11T21:27:40.827Z,75.27
2023-04-11T21:30:11.149Z,70.70
2023-04-11T21:32:40.965Z,544.77
2023-04-11T21:35:11.669Z,183.57
2023-04-11T21:37:40.864Z,64.60
2023-04-11T21:40:10.588Z,80.57
2023-04-11T21:42:39.919Z,247.50
2023-04-11T21:45:09.519Z,61.13
2023-04-11T21:47:37.645Z,53.33
2023-04-11T21:50:06.446Z,107.37
2023-04-11T21:52:34.429Z,39.10
2023-04-11T21:55:02.461Z,91.60
2023-04-11T21:57:33.720Z,72.70
2023-04-11T22:00:04.027Z,137.73
2023-04-11T22:02:32.137Z,44.57
2023-04-11T22:05:06.282Z,68.63
2023-04-11T22:07:39.061Z,65.13
2023-04-11T22:10:10.380Z,129.53
2023-04-11T22:12:38.934Z,74.53
2023-04-11T22:15:12.624Z,50.90
2023-04-11T22:17:43.570Z,25.50
2023-04-11T22:20:12.798Z,48.30
2023-04-11T22:22:40.730Z,64.87
2023-04-11T22:25:10.048Z,41.50
2023-04-11T22:27:38.557Z,31.43
2023-04-11T22:30:09.867Z,35.23
2023-04-11T22:32:38.186Z,40.80
2023-04-11T22:35:08.288Z,34.83
2023-04-11T22:37:36.398Z,98.33
2023-04-11T22:40:06.037Z,53.90
2023-04-11T22:42:34.083Z,64.23
2023-04-11T22:45:02.087Z,60.53
2023-04-11T22:47:34.166Z,49.80
2023-04-11T22:50:03.693Z,38.07
2023-04-11T22:52:31.808Z,77.80
2023-04-11T22:54:59.864Z,56.57
2023-04-11T22:57:27.856Z,120.97
2023-04-11T22:59:56.003Z,49.33
2023-04-11T23:02:25.257Z,84.50
2023-04-11T23:04:54.896Z,23.07
2023-04-11T23:07:25.140Z,61.67
2023-04-11T23:09:53.651Z,33.43
2023-04-11T23:12:22.077Z,46.47
2023-04-11T23:14:50.445Z,66.60
2023-04-11T23:17:18.447Z,66.37
2023-04-11T23:19:47.127Z,74.10
2023-04-11T23:22:16.494Z,85.07
2023-04-11T23:24:45.403Z,39.27
2023-04-11T23:27:13.843Z,111.77
2023-04-11T23:29:41.808Z,65.70
2023-04-11T23:32:09.784Z,41.07
2023-04-11T23:34:37.753Z,41.93
2023-04-11T23:37:05.745Z,27.93
2023-04-11T23:39:35.066Z,67.10
2023-04-11T23:42:03.053Z,32.00
2023-04-11T23:44:31.235Z,48.10
2023-04-11T23:47:00.107Z,26.80
2023-04-11T23:49:28.121Z,17.77
2023-04-11T23:51:56.155Z,122.80
2023-04-11T23:54:26.973Z,32.10
2023-04-11T23:56:58.463Z,46.00
2023-04-11T23:59:26.420Z,30.80
